Time;durP1;ratioP1;P1;durP2;ratioP2;P2;SDS_P1;SDS_P2;PMS_P1;PMS_P2;Temp;Humidity;BMP_temperature;BMP_pressure;BME280_temperature;BME280_humidity;BME280_pressure;Samples;Min_cycle;Max_cycle;Signal;HPM_P1;HPM_P2
2023/07/31 00:00:36;;;;;;;9.18;3.78;;;15.60;99.90;;;;;;5066794;28;20060;-72
2023/07/31 00:03:02;;;;;;;11.60;3.75;;;15.60;99.90;;;;;;5061361;28;265319;-74
2023/07/31 00:05:28;;;;;;;17.17;3.88;;;15.60;99.90;;;;;;5068895;28;20060;-72
2023/07/31 00:07:54;;;;;;;10.93;4.32;;;15.50;99.90;;;;;;5039450;28;207016;-72
2023/07/31 00:10:21;;;;;;;12.90;4.25;;;15.50;99.90;;;;;;5069142;28;20045;-71
2023/07/31 00:12:47;;;;;;;11.07;4.68;;;15.50;99.90;;;;;;5055752;28;198137;-71
2023/07/31 00:15:14;;;;;;;12.35;4.65;;;15.50;99.90;;;;;;5071330;28;20056;-71
2023/07/31 00:17:40;;;;;;;10.68;4.53;;;15.40;99.90;;;;;;5050085;28;127033;-71
2023/07/31 00:20:06;;;;;;;11.20;4.57;;;15.40;99.90;;;;;;5076362;28;20053;-72
2023/07/31 00:22:33;;;;;;;12.65;4.75;;;15.30;99.90;;;;;;5050601;28;198272;-72
2023/07/31 00:24:59;;;;;;;11.27;4.63;;;15.30;99.90;;;;;;5046448;28;20060;-72
2023/07/31 00:27:25;;;;;;;10.30;4.90;;;15.30;99.90;;;;;;5042103;28;211141;-72
2023/07/31 00:29:52;;;;;;;10.90;4.75;;;15.30;99.90;;;;;;5048089;28;20033;-72
2023/07/31 00:32:18;;;;;;;12.73;5.00;;;15.30;99.90;;;;;;5040992;28;249920;-71
2023/07/31 00:34:44;;;;;;;10.85;4.75;;;15.20;99.90;;;;;;5072241;28;20060;-72
2023/07/31 00:37:10;;;;;;;11.25;4.82;;;15.30;99.90;;;;;;5049552;28;118561;-72
2023/07/31 00:39:36;;;;;;;13.48;5.18;;;15.20;99.90;;;;;;5053261;28;20044;-72
2023/07/31 00:42:03;;;;;;;12.70;5.22;;;15.20;99.90;;;;;;5055134;28;271073;-72
2023/07/31 00:44:29;;;;;;;12.32;5.40;;;15.20;99.90;;;;;;5070836;28;20509;-72
2023/07/31 00:46:56;;;;;;;11.43;5.13;;;15.20;99.90;;;;;;5052906;28;277802;-73
2023/07/31 00:49:23;;;;;;;14.80;4.93;;;15.20;99.90;;;;;;5050314;28;20048;-73
2023/07/31 00:51:49;;;;;;;12.15;5.30;;;15.10;99.90;;;;;;5041216;28;256539;-73
2023/07/31 00:54:15;;;;;;;12.45;4.80;;;15.10;99.90;;;;;;5067844;28;20052;-73
2023/07/31 00:56:44;;;;;;;11.18;5.15;;;15.10;99.90;;;;;;5050419;28;268239;-72
2023/07/31 00:59:10;;;;;;;12.55;5.28;;;15.10;99.90;;;;;;5064267;28;20586;-72
2023/07/31 01:01:36;;;;;;;13.05;5.55;;;15.10;99.90;;;;;;5050006;28;253765;-71
2023/07/31 01:04:03;;;;;;;12.23;5.63;;;15.10;99.90;;;;;;5065843;28;20052;-72
2023/07/31 01:06:54;;;;;;;10.88;4.90;;;15.10;99.90;;;;;;5067315;28;20438;-72
2023/07/31 01:09:25;;;;;;;13.05;5.10;;;15.10;99.90;;;;;;5050823;28;20051;-72
2023/07/31 01:12:00;;;;;;;10.40;4.00;;;15.10;99.90;;;;;;5047053;28;269078;-72
2023/07/31 01:14:26;;;;;;;11.43;4.25;;;15.00;99.90;;;;;;5076781;28;20147;-73
2023/07/31 01:16:52;;;;;;;9.02;3.70;;;15.00;99.90;;;;;;5044885;28;258937;-73
2023/07/31 01:19:21;;;;;;;8.75;3.60;;;15.10;99.90;;;;;;5063575;28;20553;-72
2023/07/31 01:22:35;;;;;;;7.80;3.08;;;15.00;99.90;;;;;;5045702;28;262866;-72
2023/07/31 01:25:43;;;;;;;7.25;2.70;;;15.00;99.90;;;;;;5063348;28;20064;-70
2023/07/31 01:28:40;;;;;;;8.18;2.60;;;15.00;99.90;;;;;;5061774;28;273617;-71
2023/07/31 01:31:10;;;;;;;7.45;2.40;;;15.00;99.90;;;;;;5061113;28;20064;-70
2023/07/31 01:33:37;;;;;;;8.23;2.47;;;15.00;99.90;;;;;;5044370;28;197733;-71
2023/07/31 01:36:04;;;;;;;7.22;2.40;;;15.00;99.90;;;;;;5062851;28;20049;-71
2023/07/31 01:38:30;;;;;;;7.90;2.35;;;15.00;99.90;;;;;;5053632;28;269971;-70
2023/07/31 01:40:56;;;;;;;6.80;2.10;;;15.00;99.90;;;;;;5064869;28;20067;-71
2023/07/31 01:43:23;;;;;;;6.32;1.90;;;15.00;99.90;;;;;;5056892;28;256553;-71
2023/07/31 01:45:49;;;;;;;6.70;1.90;;;15.00;99.90;;;;;;5058945;28;20045;-71
2023/07/31 01:48:15;;;;;;;6.10;1.83;;;15.00;99.90;;;;;;5050119;28;45743;-72
2023/07/31 01:50:41;;;;;;;6.60;1.75;;;15.00;99.90;;;;;;5063828;28;20075;-71
2023/07/31 01:53:07;;;;;;;7.32;1.60;;;15.00;99.90;;;;;;5041273;28;126344;-71
2023/07/31 01:55:33;;;;;;;6.28;1.27;;;15.00;99.90;;;;;;5054562;28;20044;-72
2023/07/31 01:57:59;;;;;;;5.18;1.20;;;15.00;99.90;;;;;;5054247;28;267354;-71
2023/07/31 02:00:25;;;;;;;3.97;1.10;;;15.00;99.90;;;;;;5071791;28;20524;-71
2023/07/31 02:02:51;;;;;;;4.22;1.20;;;15.00;99.90;;;;;;5055870;28;125617;-71
2023/07/31 02:05:17;;;;;;;5.03;1.20;;;15.00;99.90;;;;;;5038010;28;20050;-70
2023/07/31 02:07:43;;;;;;;5.88;1.27;;;15.00;99.90;;;;;;5021493;28;202042;-71
2023/07/31 02:10:10;;;;;;;6.68;1.25;;;15.00;99.90;;;;;;5030928;28;20057;-71
2023/07/31 02:12:36;;;;;;;5.13;1.20;;;15.00;99.90;;;;;;5045945;28;262066;-71
2023/07/31 02:15:02;;;;;;;5.75;1.10;;;15.00;99.90;;;;;;5042841;28;20049;-72
2023/07/31 02:17:29;;;;;;;6.57;1.10;;;15.00;99.90;;;;;;5049958;28;264763;-71
2023/07/31 02:19:55;;;;;;;5.70;1.33;;;15.00;99.90;;;;;;5075693;28;20060;-71
2023/07/31 02:22:21;;;;;;;4.55;1.20;;;15.00;99.90;;;;;;5050844;28;213495;-71
2023/07/31 02:24:47;;;;;;;4.55;1.20;;;15.00;99.90;;;;;;5059980;28;20070;-71
2023/07/31 02:27:13;;;;;;;5.28;1.40;;;14.90;99.90;;;;;;5048092;28;270031;-71
2023/07/31 02:29:39;;;;;;;5.65;1.52;;;14.90;99.90;;;;;;5053002;28;20049;-72
2023/07/31 02:32:06;;;;;;;4.50;1.27;;;15.00;99.90;;;;;;5055375;28;100986;-71
2023/07/31 02:34:32;;;;;;;6.30;1.60;;;15.00;99.90;;;;;;5068810;28;20053;-72
2023/07/31 02:36:58;;;;;;;5.75;1.25;;;15.00;99.90;;;;;;5041057;28;260288;-72
2023/07/31 02:39:24;;;;;;;5.82;1.40;;;15.00;99.90;;;;;;5052540;28;20095;-72
2023/07/31 02:41:50;;;;;;;5.20;1.20;;;15.00;99.90;;;;;;5050119;28;270030;-72
2023/07/31 02:44:16;;;;;;;4.88;1.17;;;15.00;99.90;;;;;;5068853;28;20052;-72
2023/07/31 02:46:42;;;;;;;5.50;1.27;;;15.00;99.90;;;;;;5046854;28;267550;-72
2023/07/31 02:49:08;;;;;;;4.32;1.15;;;15.00;99.90;;;;;;5068328;28;20045;-72
2023/07/31 02:51:34;;;;;;;4.28;1.10;;;15.10;99.90;;;;;;5044578;28;253487;-71
2023/07/31 02:54:00;;;;;;;3.45;1.00;;;15.10;99.90;;;;;;5045143;28;126718;-73
2023/07/31 02:56:26;;;;;;;4.68;0.90;;;15.10;99.90;;;;;;5044527;28;20060;-72
2023/07/31 02:58:52;;;;;;;5.28;1.20;;;15.10;99.90;;;;;;5047895;28;266502;-72
2023/07/31 03:01:18;;;;;;;5.03;1.15;;;15.10;99.90;;;;;;5067704;28;20064;-73
2023/07/31 03:03:45;;;;;;;5.72;1.20;;;15.20;99.90;;;;;;5058227;28;254330;-73
2023/07/31 03:06:11;;;;;;;6.10;1.40;;;15.20;99.90;;;;;;5063773;28;20052;-74
2023/07/31 03:08:37;;;;;;;5.75;1.50;;;15.20;99.90;;;;;;5052836;28;251572;-74
2023/07/31 03:11:03;;;;;;;5.13;1.35;;;15.20;99.90;;;;;;5065184;28;20091;-73
2023/07/31 03:13:29;;;;;;;6.00;1.50;;;15.20;99.90;;;;;;5050154;28;160669;-72
2023/07/31 03:15:55;;;;;;;6.03;1.40;;;15.20;99.90;;;;;;5062539;28;20063;-72
2023/07/31 03:18:21;;;;;;;6.20;1.30;;;15.20;99.90;;;;;;5049803;28;58110;-72
2023/07/31 03:20:47;;;;;;;4.28;1.10;;;15.20;99.90;;;;;;5068059;28;20044;-72
2023/07/31 03:23:13;;;;;;;4.82;1.30;;;15.20;99.90;;;;;;5052878;28;259122;-72
2023/07/31 03:25:55;;;;;;;4.47;1.25;;;15.20;99.90;;;;;;5073091;28;20044;-72
2023/07/31 03:28:21;;;;;;;5.50;1.50;;;15.20;99.90;;;;;;5033358;28;71825;-73
2023/07/31 03:30:47;;;;;;;6.55;1.75;;;15.30;99.90;;;;;;5063683;28;20040;-73
2023/07/31 03:33:13;;;;;;;6.50;1.83;;;15.30;99.90;;;;;;5064743;28;268116;-73
2023/07/31 03:35:39;;;;;;;6.47;1.58;;;15.30;99.90;;;;;;5069785;28;20064;-73
2023/07/31 03:38:05;;;;;;;7.20;1.80;;;15.30;99.90;;;;;;5054194;28;290857;-73
2023/07/31 03:40:31;;;;;;;6.63;1.60;;;15.30;99.90;;;;;;5063274;28;20549;-72
2023/07/31 03:42:57;;;;;;;6.00;1.40;;;15.30;99.90;;;;;;5063444;28;276824;-73
2023/07/31 03:45:23;;;;;;;5.30;1.35;;;15.30;99.90;;;;;;5051318;28;20059;-72
2023/07/31 03:47:49;;;;;;;5.05;1.20;;;15.30;99.90;;;;;;5047731;28;226480;-71
2023/07/31 03:50:15;;;;;;;5.00;1.23;;;15.30;99.90;;;;;;5062535;28;20044;-71
2023/07/31 03:52:42;;;;;;;5.53;1.40;;;15.30;99.90;;;;;;5043693;28;133468;-71
2023/07/31 03:55:08;;;;;;;5.07;1.10;;;15.20;99.90;;;;;;5073239;28;20076;-71
2023/07/31 03:57:34;;;;;;;4.68;1.10;;;15.30;99.90;;;;;;5053992;28;260718;-71
2023/07/31 04:00:00;;;;;;;7.50;1.40;;;15.30;99.90;;;;;;5069807;28;20056;-71
2023/07/31 04:02:26;;;;;;;3.65;1.02;;;15.20;99.90;;;;;;5051843;28;267125;-71
2023/07/31 04:04:52;;;;;;;5.78;1.20;;;15.30;99.90;;;;;;5077366;28;20056;-71
2023/07/31 04:07:18;;;;;;;5.28;1.20;;;15.20;99.90;;;;;;5048472;28;276930;-71
2023/07/31 04:09:44;;;;;;;7.35;1.40;;;15.30;99.90;;;;;;5077727;28;20048;-71
2023/07/31 04:12:10;;;;;;;4.80;1.20;;;15.20;99.90;;;;;;5059410;28;20067;-72
2023/07/31 04:14:37;;;;;;;4.95;1.30;;;15.20;99.90;;;;;;5055577;28;20044;-71
2023/07/31 04:17:03;;;;;;;6.28;1.40;;;15.30;99.90;;;;;;5052629;28;268691;-72
2023/07/31 04:19:29;;;;;;;6.13;1.50;;;15.20;99.90;;;;;;5064718;28;20052;-72
2023/07/31 04:21:55;;;;;;;6.40;1.42;;;15.20;99.90;;;;;;5054608;28;254515;-72
2023/07/31 04:24:24;;;;;;;5.90;1.50;;;15.20;99.90;;;;;;5078692;28;20067;-73
2023/07/31 04:26:52;;;;;;;6.50;1.40;;;15.20;99.90;;;;;;5050092;28;270227;-73
2023/07/31 04:29:18;;;;;;;6.05;1.50;;;15.20;99.90;;;;;;5078547;28;20068;-73
2023/07/31 04:31:44;;;;;;;5.97;1.40;;;15.20;99.90;;;;;;5067302;28;258938;-73
2023/07/31 04:34:11;;;;;;;7.63;1.30;;;15.20;99.90;;;;;;5060271;28;20059;-74
2023/07/31 04:36:37;;;;;;;5.68;1.33;;;15.20;99.90;;;;;;5043859;28;254906;-74
2023/07/31 04:39:04;;;;;;;8.45;1.48;;;15.20;99.90;;;;;;5075408;28;20052;-76
2023/07/31 04:41:30;;;;;;;6.60;1.45;;;15.20;99.90;;;;;;5068639;28;20059;-74
2023/07/31 04:43:56;;;;;;;6.78;1.50;;;15.20;99.90;;;;;;5048581;28;47689;-74
2023/07/31 04:46:22;;;;;;;6.38;1.38;;;15.20;99.90;;;;;;5063207;28;20052;-74
2023/07/31 04:48:48;;;;;;;8.77;1.70;;;15.20;99.90;;;;;;5046180;28;79855;-75
2023/07/31 04:51:14;;;;;;;5.97;1.38;;;15.30;99.90;;;;;;5069496;28;20530;-75
2023/07/31 04:53:40;;;;;;;9.43;1.90;;;15.30;99.90;;;;;;5039460;28;164693;-76
2023/07/31 04:56:06;;;;;;;6.85;1.63;;;15.30;99.90;;;;;;5065362;28;20592;-75
2023/07/31 04:58:33;;;;;;;9.43;1.73;;;15.30;99.90;;;;;;5049188;28;268158;-74
2023/07/31 05:00:59;;;;;;;8.02;1.70;;;15.30;99.90;;;;;;5072779;28;20048;-75
2023/07/31 05:03:25;;;;;;;8.13;1.92;;;15.30;99.90;;;;;;5060649;28;58840;-75
2023/07/31 05:05:51;;;;;;;14.23;1.90;;;15.30;99.90;;;;;;5066055;28;20608;-75
2023/07/31 05:08:20;;;;;;;7.65;1.88;;;15.40;99.90;;;;;;5063582;28;273673;-75
2023/07/31 05:10:46;;;;;;;8.40;2.00;;;15.40;99.90;;;;;;5071895;28;20048;-74
2023/07/31 05:13:12;;;;;;;9.27;2.20;;;15.50;99.90;;;;;;5065291;28;255825;-74
2023/07/31 05:15:38;;;;;;;9.50;2.42;;;15.50;99.90;;;;;;5063793;28;20048;-74
2023/07/31 05:18:04;;;;;;;9.18;2.53;;;15.50;99.90;;;;;;5060312;28;276806;-74
2023/07/31 05:20:30;;;;;;;15.15;3.15;;;15.60;99.90;;;;;;5069605;28;20051;-74
2023/07/31 05:22:56;;;;;;;14.38;3.90;;;15.60;99.90;;;;;;5053942;28;32992;-74
2023/07/31 05:25:22;;;;;;;15.45;4.10;;;15.60;99.90;;;;;;5072481;28;20052;-74
2023/07/31 05:27:48;;;;;;;17.65;4.70;;;15.70;99.90;;;;;;5063208;28;90881;-73
2023/07/31 05:30:15;;;;;;;22.13;5.55;;;15.70;99.90;;;;;;5066804;28;20064;-73
2023/07/31 05:32:41;;;;;;;20.27;5.60;;;15.80;99.90;;;;;;5059462;28;272738;-72
2023/07/31 05:35:07;;;;;;;25.98;6.80;;;15.80;99.90;;;;;;5073641;28;20057;-74
2023/07/31 05:37:33;;;;;;;22.40;6.57;;;15.80;99.90;;;;;;5057969;28;47120;-74
2023/07/31 05:39:59;;;;;;;25.85;7.82;;;15.80;99.90;;;;;;5067966;28;20549;-73
2023/07/31 05:42:25;;;;;;;27.25;7.93;;;15.90;99.90;;;;;;5053352;28;173587;-73
2023/07/31 05:44:51;;;;;;;32.17;9.20;;;15.90;99.90;;;;;;5067708;28;20067;-71
2023/07/31 05:47:17;;;;;;;30.08;8.52;;;16.00;99.90;;;;;;5053207;28;278424;-70
2023/07/31 05:49:44;;;;;;;37.40;8.98;;;16.00;99.90;;;;;;5062570;28;20052;-71
2023/07/31 05:52:10;;;;;;;30.58;8.95;;;16.10;99.90;;;;;;5038587;28;227145;-71
2023/07/31 05:54:36;;;;;;;36.30;10.55;;;16.10;99.90;;;;;;5065954;28;20048;-71
2023/07/31 05:57:02;;;;;;;42.17;11.27;;;16.10;99.90;;;;;;5054588;28;268322;-71
2023/07/31 05:59:29;;;;;;;41.17;11.18;;;16.20;99.90;;;;;;5073899;28;20052;-71
2023/07/31 06:01:55;;;;;;;34.45;10.05;;;16.10;99.90;;;;;;5064008;28;255753;-70
2023/07/31 06:04:21;;;;;;;31.15;8.80;;;16.20;99.90;;;;;;5071932;28;20064;-72
2023/07/31 06:06:48;;;;;;;38.90;10.00;;;16.10;99.90;;;;;;5047981;28;271458;-72
2023/07/31 06:09:14;;;;;;;38.40;9.85;;;16.20;99.90;;;;;;5072109;28;20056;-71
2023/07/31 06:11:40;;;;;;;33.87;9.00;;;16.20;99.90;;;;;;5051116;28;267213;-71
2023/07/31 06:14:06;;;;;;;39.40;9.90;;;16.30;99.90;;;;;;5072840;28;20529;-71
2023/07/31 06:16:32;;;;;;;41.50;11.15;;;16.30;99.90;;;;;;5057750;28;278474;-69
2023/07/31 06:18:58;;;;;;;45.65;10.75;;;16.40;99.90;;;;;;5059766;28;20045;-71
2023/07/31 06:21:24;;;;;;;42.45;9.85;;;16.40;99.90;;;;;;5067679;28;20036;-71
2023/07/31 06:23:50;;;;;;;43.45;9.73;;;16.40;99.90;;;;;;5053270;28;271096;-72
2023/07/31 06:26:17;;;;;;;34.13;9.63;;;16.40;99.90;;;;;;5059370;28;20048;-71
2023/07/31 06:28:43;;;;;;;31.10;8.70;;;16.40;99.90;;;;;;5043699;28;232017;-72
2023/07/31 06:31:09;;;;;;;35.22;9.80;;;16.40;99.90;;;;;;5046406;28;20049;-72
2023/07/31 06:33:35;;;;;;;30.52;8.77;;;16.40;99.90;;;;;;5048873;28;67988;-70
2023/07/31 06:36:01;;;;;;;35.65;8.95;;;16.40;99.90;;;;;;5067776;28;20052;-72
2023/07/31 06:38:28;;;;;;;36.45;8.70;;;16.40;99.90;;;;;;5050396;28;62860;-72
2023/07/31 06:40:54;;;;;;;30.10;8.48;;;16.50;99.90;;;;;;5060968;28;20383;-73
2023/07/31 06:43:20;;;;;;;34.97;9.10;;;16.60;99.90;;;;;;5055746;28;276824;-73
2023/07/31 06:45:49;;;;;;;32.55;8.10;;;16.60;99.90;;;;;;5044306;28;20379;-73
2023/07/31 06:48:16;;;;;;;37.55;8.07;;;16.60;99.90;;;;;;5045677;28;269012;-73
2023/07/31 06:50:42;;;;;;;30.02;8.25;;;16.60;99.90;;;;;;5062935;28;20379;-75
2023/07/31 06:53:08;;;;;;;30.40;8.20;;;16.70;99.90;;;;;;5035967;28;135081;-73
2023/07/31 06:55:34;;;;;;;27.88;7.35;;;16.70;99.90;;;;;;5071070;28;20053;-73
2023/07/31 06:58:00;;;;;;;31.73;8.30;;;16.60;99.90;;;;;;5068287;28;20067;-73
2023/07/31 07:00:27;;;;;;;31.00;8.30;;;16.60;99.90;;;;;;5074997;28;20071;-74
2023/07/31 07:02:53;;;;;;;36.38;9.10;;;16.60;99.90;;;;;;5062980;28;254343;-74
2023/07/31 07:05:19;;;;;;;27.10;7.93;;;16.60;99.90;;;;;;5052366;28;20391;-74
2023/07/31 07:07:45;;;;;;;31.48;7.82;;;16.50;99.90;;;;;;5049229;28;263839;-75
2023/07/31 07:10:12;;;;;;;27.08;7.65;;;16.50;99.90;;;;;;5077227;28;20542;-74
2023/07/31 07:12:38;;;;;;;31.98;7.95;;;16.50;99.90;;;;;;5057626;28;228364;-73
2023/07/31 07:15:04;;;;;;;26.60;7.65;;;16.50;99.90;;;;;;5063806;28;20060;-74
2023/07/31 07:17:33;;;;;;;28.10;7.57;;;16.50;99.90;;;;;;5060137;28;271802;-73
2023/07/31 07:20:00;;;;;;;23.92;7.45;;;16.50;99.90;;;;;;5065804;28;20299;-73
2023/07/31 07:22:27;;;;;;;21.77;6.88;;;16.50;99.90;;;;;;5062774;28;274685;-72
2023/07/31 07:24:53;;;;;;;21.80;6.45;;;16.50;99.90;;;;;;5075354;28;20052;-73
2023/07/31 07:27:20;;;;;;;17.98;5.25;;;16.50;99.90;;;;;;5055248;28;215176;-72
2023/07/31 07:29:46;;;;;;;19.25;5.40;;;16.40;99.90;;;;;;5061197;28;20499;-72
2023/07/31 07:32:13;;;;;;;16.45;5.30;;;16.50;99.90;;;;;;5049705;28;266959;-72
2023/07/31 07:34:39;;;;;;;15.20;4.82;;;16.40;99.90;;;;;;5072336;28;20053;-72
2023/07/31 07:37:05;;;;;;;14.90;5.20;;;16.50;99.90;;;;;;5055757;28;255985;-73
2023/07/31 07:39:31;;;;;;;16.30;4.40;;;16.50;99.90;;;;;;5055957;28;20057;-72
2023/07/31 07:41:57;;;;;;;13.00;3.80;;;16.50;99.90;;;;;;5055942;28;258963;-71
2023/07/31 07:44:24;;;;;;;11.15;3.90;;;16.30;99.90;;;;;;5069645;28;20730;-72
2023/07/31 07:46:50;;;;;;;10.68;3.80;;;16.40;99.90;;;;;;5052249;28;255833;-71
2023/07/31 07:49:16;;;;;;;12.50;3.58;;;16.30;99.90;;;;;;5066779;28;20443;-72
2023/07/31 07:51:42;;;;;;;9.57;3.17;;;16.30;99.90;;;;;;5035474;28;277070;-73
2023/07/31 07:54:08;;;;;;;11.75;3.90;;;16.30;99.90;;;;;;5050780;28;20190;-71
2023/07/31 07:56:36;;;;;;;11.15;3.15;;;16.40;99.90;;;;;;5050017;28;260152;-71
2023/07/31 07:59:02;;;;;;;9.13;2.70;;;16.40;99.90;;;;;;5075427;28;20049;-72
2023/07/31 08:01:28;;;;;;;9.40;2.80;;;16.40;99.90;;;;;;5068619;28;20055;-72
2023/07/31 08:03:54;;;;;;;13.38;4.03;;;16.40;99.90;;;;;;5064541;28;253343;-72
2023/07/31 08:06:20;;;;;;;11.15;3.63;;;16.30;99.90;;;;;;5064183;28;20056;-72
2023/07/31 08:08:47;;;;;;;10.90;4.00;;;16.40;99.90;;;;;;5040105;28;204536;-73
2023/07/31 08:11:13;;;;;;;12.20;3.88;;;16.40;99.90;;;;;;5050074;28;20064;-73
2023/07/31 08:13:39;;;;;;;9.02;3.05;;;16.40;99.90;;;;;;5052697;28;267030;-72
2023/07/31 08:16:05;;;;;;;11.13;2.83;;;16.40;99.90;;;;;;5069394;28;20049;-73
2023/07/31 08:18:32;;;;;;;8.80;2.80;;;16.40;99.90;;;;;;5044569;28;196788;-73
2023/07/31 08:20:58;;;;;;;11.15;3.42;;;16.50;99.90;;;;;;5052756;28;20048;-73
2023/07/31 08:23:25;;;;;;;9.02;2.83;;;16.50;99.90;;;;;;5043008;28;249296;-72
2023/07/31 08:25:51;;;;;;;9.15;2.83;;;16.60;99.90;;;;;;5068079;28;20055;-72
2023/07/31 08:28:17;;;;;;;8.75;2.30;;;16.70;99.90;;;;;;5049632;28;81599;-72
2023/07/31 08:30:43;;;;;;;8.93;2.65;;;16.70;99.90;;;;;;5069957;28;20458;-71
2023/07/31 08:33:09;;;;;;;8.70;2.60;;;16.70;99.90;;;;;;5054708;28;265537;-71
2023/07/31 08:35:36;;;;;;;8.13;2.60;;;16.80;99.90;;;;;;5061495;28;20050;-72
2023/07/31 08:38:02;;;;;;;7.72;2.20;;;16.90;99.90;;;;;;5047697;28;223458;-70
2023/07/31 08:40:28;;;;;;;7.00;2.15;;;16.90;99.90;;;;;;5064787;28;20510;-70
2023/07/31 08:43:02;;;;;;;8.52;2.03;;;16.90;99.90;;;;;;5061006;28;274975;-71
2023/07/31 08:45:29;;;;;;;8.23;2.10;;;17.00;99.90;;;;;;5064615;28;20063;-71
2023/07/31 08:47:56;;;;;;;8.20;2.03;;;17.00;99.90;;;;;;5052627;28;282044;-71
2023/07/31 08:50:22;;;;;;;7.47;2.20;;;17.10;99.90;;;;;;5056613;28;20056;-71
2023/07/31 08:52:50;;;;;;;8.20;1.92;;;17.10;99.90;;;;;;5042095;28;273862;-72
2023/07/31 08:55:17;;;;;;;6.70;1.85;;;17.10;99.90;;;;;;5065402;28;20048;-73
2023/07/31 08:57:44;;;;;;;6.63;1.90;;;17.20;99.90;;;;;;5048816;28;259079;-72
2023/07/31 09:00:11;;;;;;;5.72;1.60;;;17.40;99.90;;;;;;5069740;28;20387;-74
2023/07/31 09:02:48;;;;;;;6.90;1.90;;;17.50;99.90;;;;;;5058422;28;274323;-72
2023/07/31 09:05:15;;;;;;;6.00;1.60;;;17.50;99.90;;;;;;5074823;28;20063;-73
2023/07/31 09:07:46;;;;;;;6.53;1.60;;;17.50;99.90;;;;;;5059388;28;267545;-73
2023/07/31 09:10:12;;;;;;;6.40;1.60;;;17.60;99.90;;;;;;5047387;28;20067;-74
2023/07/31 09:12:39;;;;;;;6.70;1.67;;;17.60;99.90;;;;;;5053697;28;257258;-73
2023/07/31 09:15:05;;;;;;;6.07;1.40;;;17.60;99.90;;;;;;5068210;28;20521;-73
2023/07/31 09:17:33;;;;;;;4.85;1.40;;;17.70;99.90;;;;;;5059423;28;267745;-73
2023/07/31 09:20:19;;;;;;;5.55;1.40;;;17.60;99.90;;;;;;5058623;28;20052;-73
2023/07/31 09:22:47;;;;;;;6.20;1.70;;;17.60;99.90;;;;;;5048098;28;66298;-74
2023/07/31 09:25:18;;;;;;;5.72;1.20;;;17.60;99.90;;;;;;5062938;28;20063;-72
2023/07/31 09:27:50;;;;;;;;;;;17.60;99.90;;;;;;5054585;28;280284;-73
2023/07/31 09:30:17;;;;;;;4.05;0.98;;;17.50;99.90;;;;;;5064521;28;20429;-72
2023/07/31 09:32:45;;;;;;;4.30;1.02;;;17.50;99.90;;;;;;5051839;28;69546;-73
2023/07/31 09:35:32;;;;;;;5.13;1.23;;;17.50;99.90;;;;;;5064119;28;20045;-73
2023/07/31 09:38:05;;;;;;;3.40;0.98;;;17.60;99.90;;;;;;5046585;28;87970;-73
2023/07/31 09:40:36;;;;;;;4.28;0.90;;;17.60;99.90;;;;;;5059300;28;20040;-74
2023/07/31 09:43:04;;;;;;;3.95;0.98;;;17.50;99.90;;;;;;5055472;28;152467;-74
2023/07/31 09:45:36;;;;;;;4.90;0.90;;;17.50;99.90;;;;;;5063294;28;20056;-73
2023/07/31 09:48:03;;;;;;;4.13;0.93;;;17.50;99.90;;;;;;5051234;28;260761;-74
2023/07/31 09:50:29;;;;;;;4.43;1.00;;;17.60;99.90;;;;;;5069334;28;20056;-73
2023/07/31 09:52:55;;;;;;;4.88;1.00;;;17.60;99.90;;;;;;5035556;28;225675;-75
2023/07/31 09:55:21;;;;;;;2.67;0.80;;;17.60;99.90;;;;;;5061931;28;20063;-73
2023/07/31 09:57:49;;;;;;;3.42;0.93;;;17.60;99.90;;;;;;5055753;28;20052;-73
2023/07/31 10:00:18;;;;;;;2.97;0.90;;;17.60;99.90;;;;;;5061426;28;20060;-75
2023/07/31 10:02:47;;;;;;;2.95;0.90;;;17.70;99.90;;;;;;5057824;28;274752;-73
2023/07/31 10:05:15;;;;;;;4.30;1.10;;;17.80;99.90;;;;;;5072947;28;20095;-73
2023/07/31 10:07:55;;;;;;;3.92;1.00;;;17.70;99.90;;;;;;5037882;28;230914;-73
2023/07/31 10:10:22;;;;;;;4.63;0.90;;;17.60;99.90;;;;;;5073071;28;20060;-73
2023/07/31 10:12:49;;;;;;;5.75;0.93;;;17.80;99.90;;;;;;5054009;28;138193;-74
2023/07/31 10:15:16;;;;;;;4.68;1.00;;;18.00;99.90;;;;;;5080592;28;20053;-72
2023/07/31 10:17:43;;;;;;;3.35;0.98;;;18.10;99.90;;;;;;5056608;28;259967;-72
2023/07/31 10:20:10;;;;;;;4.10;1.10;;;18.20;99.90;;;;;;5059510;28;20113;-73
2023/07/31 10:22:36;;;;;;;4.60;0.98;;;18.30;99.90;;;;;;5047200;28;273411;-73
2023/07/31 10:25:03;;;;;;;3.65;0.80;;;18.30;99.90;;;;;;5069456;28;20282;-72
2023/07/31 10:27:29;;;;;;;2.08;0.80;;;18.40;99.90;;;;;;5053130;28;267870;-72
2023/07/31 10:29:57;;;;;;;2.85;0.80;;;18.50;99.90;;;;;;5069339;28;20056;-72
2023/07/31 10:32:24;;;;;;;1.75;0.60;;;18.50;99.90;;;;;;5053762;28;266142;-71
2023/07/31 10:34:51;;;;;;;2.13;0.70;;;18.70;99.90;;;;;;5075645;28;20569;-72
2023/07/31 10:37:37;;;;;;;2.63;0.63;;;18.90;99.90;;;;;;5041860;28;267739;-72
2023/07/31 10:40:06;;;;;;;2.97;0.55;;;19.10;99.90;;;;;;5053039;28;20061;-72
2023/07/31 10:42:37;;;;;;;2.63;0.70;;;19.30;99.90;;;;;;5055885;28;270451;-72
2023/07/31 10:45:05;;;;;;;3.70;0.70;;;19.30;99.90;;;;;;5064399;28;20056;-71
2023/07/31 10:47:37;;;;;;;1.80;0.50;;;19.40;99.90;;;;;;5054759;28;259267;-72
2023/07/31 10:50:19;;;;;;;1.48;0.60;;;19.40;99.90;;;;;;5051984;28;20446;-72
2023/07/31 10:52:53;;;;;;;4.20;0.80;;;19.20;99.90;;;;;;5042359;28;269695;-74
2023/07/31 10:55:28;;;;;;;3.15;0.80;;;19.40;99.90;;;;;;5072676;28;20056;-73
2023/07/31 10:57:56;;;;;;;4.38;0.80;;;19.40;99.90;;;;;;5057828;28;268589;-72
2023/07/31 11:00:28;;;;;;;4.60;0.98;;;19.30;99.90;;;;;;5071567;28;20703;-73
2023/07/31 11:03:06;;;;;;;3.47;1.00;;;19.20;99.90;;;;;;5056201;28;106933;-72
2023/07/31 11:05:46;;;;;;;5.57;0.98;;;19.40;99.90;;;;;;5071073;28;20051;-72
2023/07/31 11:08:16;;;;;;;5.75;1.10;;;19.70;99.90;;;;;;5045487;28;135323;-73
2023/07/31 11:10:44;;;;;;;6.47;1.30;;;19.90;99.90;;;;;;5064918;28;20048;-72
2023/07/31 11:13:10;;;;;;;6.72;1.10;;;20.10;99.90;;;;;;5045089;28;231514;-72
2023/07/31 11:15:37;;;;;;;4.50;1.02;;;19.90;99.90;;;;;;5062646;28;20048;-73
2023/07/31 11:18:05;;;;;;;7.00;1.08;;;19.80;99.90;;;;;;5053907;28;251990;-72
2023/07/31 11:20:36;;;;;;;4.10;0.88;;;19.70;99.90;;;;;;5064153;28;20071;-72
2023/07/31 11:23:03;;;;;;;;;;;19.90;99.90;;;;;;5058392;28;87654;-72
2023/07/31 11:25:31;;;;;;;3.47;0.70;;;19.60;99.90;;;;;;5061098;28;19924;-73
2023/07/31 11:28:04;;;;;;;3.15;0.80;;;19.40;99.90;;;;;;5053282;28;260172;-72
2023/07/31 11:30:30;;;;;;;3.58;0.70;;;19.30;99.90;;;;;;5057482;28;20410;-73
2023/07/31 11:32:56;;;;;;;2.10;0.50;;;19.20;99.90;;;;;;5051631;28;58469;-73
2023/07/31 11:35:22;;;;;;;3.20;0.50;;;18.80;99.90;;;;;;5065072;28;20053;-74
2023/07/31 11:37:48;;;;;;;3.03;0.57;;;18.60;99.90;;;;;;5054604;28;38602;-73
2023/07/31 11:40:15;;;;;;;1.45;0.45;;;18.40;99.90;;;;;;5053169;28;20053;-74
2023/07/31 11:42:41;;;;;;;2.40;0.50;;;18.40;99.90;;;;;;5045259;28;258930;-74
2023/07/31 11:45:11;;;;;;;1.95;0.40;;;18.40;99.90;;;;;;5057779;28;20170;-74
2023/07/31 11:47:37;;;;;;;1.67;0.40;;;18.50;99.90;;;;;;5060103;28;279902;-72
2023/07/31 11:50:06;;;;;;;2.55;0.60;;;18.70;99.90;;;;;;5059770;28;20091;-72
2023/07/31 11:52:42;;;;;;;1.67;0.55;;;18.90;99.90;;;;;;5040127;28;133280;-71
2023/07/31 11:55:09;;;;;;;2.60;0.70;;;19.10;99.90;;;;;;5069998;28;20057;-72
2023/07/31 11:57:38;;;;;;;3.63;0.80;;;19.20;99.90;;;;;;5055640;28;263760;-71
2023/07/31 12:00:08;;;;;;;2.58;0.60;;;19.30;99.90;;;;;;5064118;28;20613;-72
2023/07/31 12:02:34;;;;;;;3.13;0.80;;;19.40;99.90;;;;;;5059827;28;34484;-71
2023/07/31 12:05:01;;;;;;;4.93;0.80;;;19.30;99.90;;;;;;5074625;28;20055;-72
2023/07/31 12:07:27;;;;;;;3.67;0.70;;;19.30;99.90;;;;;;5045783;28;281112;-72
2023/07/31 12:09:56;;;;;;;4.35;0.90;;;19.20;99.90;;;;;;5069001;28;20052;-73
2023/07/31 12:12:26;;;;;;;2.58;0.80;;;19.30;99.90;;;;;;5055297;28;121025;-72
2023/07/31 12:14:52;;;;;;;3.40;0.88;;;19.20;99.90;;;;;;5060272;28;20053;-72
2023/07/31 12:17:20;;;;;;;2.72;0.80;;;19.10;99.90;;;;;;5053926;28;258946;-73
2023/07/31 12:19:48;;;;;;;4.72;1.08;;;19.00;99.90;;;;;;5067467;28;20060;-71
2023/07/31 12:22:16;;;;;;;3.75;0.95;;;19.00;99.90;;;;;;5054422;28;107962;-72
2023/07/31 12:24:46;;;;;;;4.90;1.00;;;18.90;99.90;;;;;;5059150;28;20415;-72
2023/07/31 12:27:14;;;;;;;4.80;1.00;;;18.90;99.90;;;;;;5040550;28;276556;-71
2023/07/31 12:29:44;;;;;;;7.32;1.30;;;18.90;99.90;;;;;;5077731;28;20056;-72
2023/07/31 12:32:24;;;;;;;5.30;1.10;;;18.80;99.90;;;;;;5052396;28;252999;-73
2023/07/31 12:34:51;;;;;;;5.32;1.13;;;18.70;99.90;;;;;;5060604;28;20056;-74
2023/07/31 12:37:17;;;;;;;5.80;1.10;;;18.70;99.90;;;;;;5057338;28;39395;-73
2023/07/31 12:39:43;;;;;;;6.75;1.30;;;18.60;99.90;;;;;;5066201;28;20511;-72
2023/07/31 12:42:09;;;;;;;5.75;1.17;;;18.60;99.90;;;;;;5056040;28;257235;-73